createdAt,value
2023-03-17T00:00:54.140Z,13.63
2023-03-17T00:02:03.400Z,13.72
2023-03-17T00:03:07.901Z,13.52
2023-03-17T00:04:13.607Z,13.34
2023-03-17T00:05:25.512Z,13.41
2023-03-17T00:06:31.466Z,13.45
2023-03-17T00:07:36.313Z,13.62
2023-03-17T00:08:39.416Z,13.60
2023-03-17T00:09:43.395Z,13.80
2023-03-17T00:10:46.954Z,13.77
2023-03-17T00:11:52.896Z,13.79
2023-03-17T00:12:56.120Z,13.94
2023-03-17T00:13:59.685Z,13.84
2023-03-17T00:15:03.402Z,13.47
2023-03-17T00:16:14.424Z,13.47
2023-03-17T00:17:17.019Z,13.41
2023-03-17T00:18:22.769Z,13.48
2023-03-17T00:19:30.214Z,13.70
2023-03-17T00:20:34.874Z,13.90
2023-03-17T00:21:38.212Z,13.78
2023-03-17T00:22:42.061Z,13.71
2023-03-17T00:23:51.847Z,13.85
2023-03-17T00:24:56.815Z,13.84
2023-03-17T00:26:00.234Z,13.89
2023-03-17T00:27:12.704Z,13.78
2023-03-17T00:28:19.014Z,14.01
2023-03-17T00:29:22.652Z,14.17
2023-03-17T00:30:27.491Z,14.08
2023-03-17T00:31:32.936Z,14.11
2023-03-17T01:52:24.069Z,13.27
2023-03-17T01:53:28.542Z,13.33
2023-03-17T01:54:41.048Z,13.27
2023-03-17T01:55:45.866Z,13.14
2023-03-17T01:56:55.481Z,13.03
2023-03-17T01:57:58.851Z,13.00
2023-03-17T01:59:08.928Z,13.12
2023-03-17T02:00:18.379Z,13.31
2023-03-17T02:01:30.826Z,13.09
2023-03-17T02:02:42.396Z,13.09
2023-03-17T02:03:47.254Z,13.33
2023-03-17T02:05:00.922Z,13.10
2023-03-17T02:06:07.384Z,13.14
2023-03-17T02:07:13.690Z,13.11
2023-03-17T02:08:17.034Z,12.79
2023-03-17T02:09:23.280Z,12.90
2023-03-17T02:10:29.201Z,12.60
2023-03-17T02:11:37.733Z,12.71
2023-03-17T02:12:52.455Z,12.64
2023-03-17T02:13:56.798Z,12.73
2023-03-17T02:15:01.106Z,12.60
2023-03-17T02:16:04.489Z,12.46
2023-03-17T02:17:10.069Z,12.28
2023-03-17T02:18:19.624Z,12.29
2023-03-17T02:19:23.522Z,12.05
2023-03-17T02:21:03.840Z,12.10
2023-03-17T02:22:09.742Z,12.17
2023-03-17T02:23:13.237Z,12.07
2023-03-17T02:24:22.396Z,12.22
2023-03-17T02:25:30.862Z,12.26
2023-03-17T02:26:38.860Z,12.31
2023-03-17T02:27:46.556Z,12.37
2023-03-17T02:28:49.902Z,12.46
2023-03-17T02:29:55.626Z,12.40
2023-03-17T02:30:58.286Z,12.38
2023-03-17T02:32:03.869Z,12.55
2023-03-17T09:02:05.086Z,24.85
2023-03-17T09:03:10.560Z,24.33
2023-03-17T09:04:15.543Z,24.51
2023-03-17T09:05:18.898Z,24.27
2023-03-17T09:06:22.730Z,23.80
2023-03-17T09:07:25.248Z,22.97
2023-03-17T09:08:29.565Z,23.56
2023-03-17T09:09:32.368Z,24.45
2023-03-17T09:10:36.470Z,24.78
2023-03-17T09:11:40.476Z,25.09
2023-03-17T09:12:43.290Z,24.22
2023-03-17T09:13:48.201Z,23.77
2023-03-17T09:14:51.901Z,24.09
2023-03-17T09:15:54.573Z,23.50
2023-03-17T09:16:58.745Z,23.26
2023-03-17T09:18:02.066Z,23.96
2023-03-17T09:19:07.352Z,22.97
2023-03-17T09:20:13.962Z,23.92
2023-03-17T09:21:18.687Z,24.31
2023-03-17T09:22:22.565Z,23.36
2023-03-17T09:23:26.043Z,23.82
2023-03-17T09:24:30.007Z,23.52
2023-03-17T09:25:35.412Z,23.64
2023-03-17T09:27:34.812Z,23.58
2023-03-17T09:28:39.165Z,22.91
2023-03-17T09:31:14.705Z,22.81
2023-03-17T09:37:36.386Z,20.99
2023-03-17T09:38:39.382Z,21.53
2023-03-17T09:39:43.032Z,21.38
2023-03-17T09:40:49.964Z,21.26
2023-03-17T09:42:09.053Z,21.10
2023-03-17T09:43:24.998Z,20.88
2023-03-17T09:44:48.123Z,20.74
2023-03-17T09:45:52.826Z,20.27
2023-03-17T09:52:16.314Z,19.54
2023-03-17T09:53:23.367Z,19.13
2023-03-17T09:54:30.101Z,19.27
2023-03-17T09:55:34.432Z,18.86
2023-03-17T09:56:42.455Z,18.36
2023-03-17T09:57:45.498Z,18.77
2023-03-17T09:58:53.303Z,18.57
2023-03-17T10:00:04.809Z,18.92
2023-03-17T10:01:12.954Z,18.96
2023-03-17T10:02:22.891Z,18.75
2023-03-17T10:03:27.546Z,18.59
2023-03-17T10:04:31.049Z,18.89
2023-03-17T10:05:36.337Z,19.09
2023-03-17T10:06:43.988Z,19.00
2023-03-17T10:07:52.343Z,19.46
2023-03-17T10:09:04.484Z,19.96
2023-03-17T10:10:16.064Z,20.07
2023-03-17T10:11:28.122Z,20.13
2023-03-17T10:12:44.871Z,20.11
2023-03-17T10:13:54.989Z,20.59
2023-03-17T10:15:02.916Z,20.76
2023-03-17T10:16:09.986Z,21.07
2023-03-17T10:17:17.927Z,20.58
2023-03-17T10:18:25.002Z,20.53
2023-03-17T10:19:31.914Z,20.01
2023-03-17T10:20:40.162Z,20.05
2023-03-17T10:21:51.639Z,20.62
2023-03-17T10:22:59.408Z,21.77
2023-03-17T10:24:05.679Z,21.58
2023-03-17T10:25:16.070Z,21.62
2023-03-17T10:26:28.999Z,21.52
2023-03-17T10:27:34.855Z,21.58
2023-03-17T10:28:39.226Z,21.51
2023-03-17T10:29:42.253Z,20.92
2023-03-17T10:30:46.131Z,20.20
2023-03-17T10:31:49.649Z,20.89
2023-03-17T10:32:55.510Z,21.77
2023-03-17T10:34:14.012Z,22.29
2023-03-17T10:35:18.759Z,22.96
2023-03-17T10:36:35.634Z,21.53
2023-03-17T10:37:39.404Z,21.24
2023-03-17T10:38:41.975Z,20.78
2023-03-17T10:39:49.600Z,20.17
2023-03-17T10:40:57.323Z,20.65
2023-03-17T10:42:09.049Z,21.05
2023-03-17T10:43:20.680Z,20.48
2023-03-17T10:44:42.193Z,20.40
2023-03-17T10:45:59.164Z,20.79
2023-03-17T10:47:03.152Z,20.09
2023-03-17T10:48:10.285Z,19.55
2023-03-17T10:49:18.478Z,19.70
2023-03-17T10:50:24.799Z,20.56
2023-03-17T10:51:32.151Z,21.18
2023-03-17T10:52:41.168Z,20.97
2023-03-17T10:53:44.039Z,20.94
2023-03-17T10:54:52.778Z,20.80
2023-03-17T10:55:57.827Z,20.51
2023-03-17T10:57:05.439Z,20.32
2023-03-17T10:58:16.869Z,19.88
2023-03-17T10:59:21.697Z,19.96
2023-03-17T11:00:26.732Z,19.81
2023-03-17T11:01:37.269Z,19.73
2023-03-17T11:02:47.563Z,20.38
2023-03-17T11:03:51.043Z,21.17
2023-03-17T11:05:00.134Z,21.83
2023-03-17T11:06:06.554Z,22.69
2023-03-17T11:07:17.690Z,22.81
2023-03-17T11:08:21.192Z,23.25
2023-03-17T11:09:26.473Z,23.82
2023-03-17T11:10:37.856Z,23.61
2023-03-17T11:11:47.011Z,23.84
2023-03-17T11:12:55.534Z,23.49
2023-03-17T11:14:03.969Z,23.33
2023-03-17T11:15:11.728Z,23.80
2023-03-17T11:16:23.750Z,23.48
2023-03-17T11:17:38.324Z,23.71
2023-03-17T11:18:42.391Z,23.82
2023-03-17T11:19:53.542Z,23.79
2023-03-17T11:21:00.239Z,23.96
2023-03-17T11:22:11.760Z,24.20
2023-03-17T11:23:40.087Z,24.46
2023-03-17T11:24:55.559Z,24.40
2023-03-17T11:26:14.875Z,24.24
2023-03-17T11:27:30.395Z,24.23
2023-03-17T11:28:41.264Z,24.50
2023-03-17T11:29:54.676Z,24.21
2023-03-17T11:31:07.687Z,23.90
2023-03-17T11:32:27.465Z,23.48
2023-03-17T11:33:36.395Z,22.89
2023-03-17T11:34:53.871Z,23.10
2023-03-17T11:36:01.788Z,23.94
2023-03-17T11:37:15.018Z,24.11
2023-03-17T11:38:26.123Z,23.83
2023-03-17T11:39:37.120Z,23.89
2023-03-17T11:40:54.326Z,23.48
2023-03-17T11:42:11.678Z,23.91
2023-03-17T11:43:28.654Z,24.30
2023-03-17T11:45:05.062Z,23.76
2023-03-17T11:46:11.874Z,23.17
2023-03-17T11:47:27.065Z,23.83
2023-03-17T11:48:43.070Z,24.18
2023-03-17T11:49:54.131Z,23.91
2023-03-17T11:51:03.847Z,23.60
2023-03-17T11:52:17.501Z,24.43
2023-03-17T11:53:37.758Z,25.26
2023-03-17T11:54:52.513Z,24.74
2023-03-17T11:56:01.548Z,25.19
2023-03-17T11:57:10.784Z,25.46
2023-03-17T11:58:24.166Z,25.42
2023-03-17T11:59:34.622Z,25.32
2023-03-17T12:00:43.992Z,26.02
2023-03-17T12:01:56.270Z,26.23
2023-03-17T12:03:07.395Z,25.97
2023-03-17T12:04:18.986Z,26.06
2023-03-17T12:05:26.482Z,26.38
2023-03-17T12:06:34.125Z,26.87
2023-03-17T12:07:42.585Z,27.03
2023-03-17T12:08:52.779Z,26.82
2023-03-17T12:10:05.303Z,26.42
2023-03-17T12:11:13.003Z,26.34
2023-03-17T12:12:28.150Z,26.31
2023-03-17T12:13:40.325Z,26.61
2023-03-17T12:14:48.851Z,26.30
2023-03-17T12:15:54.779Z,26.09
2023-03-17T12:17:06.368Z,26.98
2023-03-17T12:18:16.467Z,26.55
2023-03-17T12:19:23.732Z,26.62
2023-03-17T12:20:34.128Z,26.46
2023-03-17T12:21:40.149Z,26.54
2023-03-17T12:22:48.753Z,27.12
2023-03-17T12:23:59.034Z,27.25
2023-03-17T12:25:14.675Z,26.95
2023-03-17T12:26:20.393Z,27.15
2023-03-17T12:27:29.348Z,26.58
2023-03-17T12:28:39.716Z,26.37
2023-03-17T12:29:49.912Z,27.48
2023-03-17T12:30:57.468Z,26.38
2023-03-17T12:32:06.122Z,24.99
2023-03-17T12:33:18.611Z,26.40
2023-03-17T12:34:26.840Z,26.81
2023-03-17T12:35:34.315Z,26.23
2023-03-17T12:36:39.424Z,27.09
2023-03-17T12:37:42.060Z,26.92
2023-03-17T12:38:48.600Z,26.76
2023-03-17T12:39:56.387Z,27.04
2023-03-17T12:41:16.746Z,26.32
2023-03-17T12:42:39.471Z,24.86
2023-03-17T12:43:53.035Z,24.18
2023-03-17T12:45:20.810Z,24.08
2023-03-17T12:46:44.847Z,23.63
2023-03-17T12:48:05.274Z,23.85
2023-03-17T12:49:42.736Z,23.79
2023-03-17T12:51:06.666Z,23.64
2023-03-17T12:52:24.143Z,23.82
2023-03-17T12:53:30.380Z,22.75
2023-03-17T12:54:36.862Z,22.80
2023-03-17T12:55:39.800Z,22.60
2023-03-17T12:56:47.732Z,21.69
2023-03-17T12:58:03.622Z,21.98
2023-03-17T12:59:10.010Z,22.07
2023-03-17T13:00:27.363Z,22.17
2023-03-17T13:01:32.606Z,22.47
2023-03-17T13:02:39.969Z,22.17
2023-03-17T13:03:57.929Z,22.45
2023-03-17T13:05:03.148Z,22.38
2023-03-17T13:06:10.489Z,22.46
2023-03-17T13:07:18.342Z,21.83
2023-03-17T13:08:28.412Z,22.71
2023-03-17T13:09:43.944Z,23.36
2023-03-17T13:10:49.032Z,22.97
2023-03-17T13:11:51.727Z,23.42
2023-03-17T13:13:12.491Z,23.61
2023-03-17T13:14:25.130Z,22.24
2023-03-17T13:15:50.289Z,22.75
2023-03-17T13:17:04.792Z,22.90
2023-03-17T13:18:39.336Z,23.29
2023-03-17T13:19:57.342Z,23.42
2023-03-17T13:21:16.313Z,23.20
2023-03-17T13:22:35.526Z,23.77
2023-03-17T13:23:42.345Z,23.20
2023-03-17T13:24:49.011Z,22.97
2023-03-17T13:25:53.902Z,22.84
2023-03-17T13:27:01.036Z,23.00
2023-03-17T13:28:27.986Z,22.42
2023-03-17T13:29:44.424Z,22.25
2023-03-17T13:31:01.064Z,22.18
2023-03-17T13:32:36.198Z,22.13
2023-03-17T13:33:46.268Z,22.01
2023-03-17T13:34:51.072Z,22.27
2023-03-17T13:36:27.529Z,21.44
2023-03-17T13:37:35.123Z,22.27
2023-03-17T13:39:19.350Z,22.34
2023-03-17T13:40:30.814Z,22.23
2023-03-17T13:41:45.545Z,22.65
2023-03-17T13:43:07.863Z,23.09
2023-03-17T13:44:37.876Z,23.05
2023-03-17T13:45:41.890Z,21.97
2023-03-17T13:46:48.739Z,21.95
2023-03-17T13:47:52.806Z,22.22
2023-03-17T13:48:57.483Z,22.66
2023-03-17T13:50:08.160Z,22.57
2023-03-17T13:51:20.901Z,22.15
2023-03-17T13:52:29.445Z,22.14
2023-03-17T13:53:39.064Z,22.02
2023-03-17T13:54:47.243Z,22.50
2023-03-17T13:56:15.682Z,22.38
2023-03-17T13:57:28.639Z,21.53
2023-03-17T13:58:36.362Z,21.21
2023-03-17T13:59:58.408Z,20.95
2023-03-17T14:01:06.826Z,20.87
2023-03-17T14:02:17.036Z,21.25
2023-03-17T14:03:29.172Z,20.92
2023-03-17T14:04:41.961Z,21.60
2023-03-17T14:05:48.610Z,21.63
2023-03-17T14:06:55.078Z,21.77
2023-03-17T14:08:01.938Z,21.83
2023-03-17T14:09:11.225Z,21.64
2023-03-17T14:10:18.866Z,22.00
2023-03-17T14:11:29.267Z,22.44
2023-03-17T14:12:39.823Z,22.82
2023-03-17T14:13:48.737Z,23.04
2023-03-17T14:15:07.644Z,22.85
2023-03-17T14:16:18.404Z,22.91
2023-03-17T14:17:26.097Z,22.75
2023-03-17T14:18:33.201Z,23.25
2023-03-17T14:19:41.678Z,23.00
2023-03-17T14:20:54.565Z,22.85
2023-03-17T14:22:04.610Z,22.71
2023-03-17T14:23:08.253Z,22.45
2023-03-17T14:24:22.894Z,22.22
2023-03-17T14:25:27.933Z,22.01
2023-03-17T14:26:32.841Z,21.48
2023-03-17T14:27:38.108Z,20.95
2023-03-17T14:28:41.148Z,20.84
2023-03-17T14:29:44.815Z,20.44
2023-03-17T14:30:56.646Z,20.32
2023-03-17T14:32:04.818Z,20.32
2023-03-17T14:33:20.696Z,20.01
2023-03-17T14:34:26.186Z,20.00
2023-03-17T14:35:33.285Z,20.13
2023-03-17T14:36:37.734Z,19.92
2023-03-17T14:37:41.832Z,20.09
2023-03-17T14:38:49.672Z,19.41
2023-03-17T14:39:54.809Z,19.06
2023-03-17T14:41:04.568Z,19.23
2023-03-17T14:42:07.575Z,19.18
2023-03-17T14:43:12.326Z,18.76
2023-03-17T14:44:14.838Z,18.35
2023-03-17T14:45:22.622Z,18.49
2023-03-17T14:46:29.913Z,18.73
2023-03-17T14:47:40.277Z,18.93
2023-03-17T14:48:46.702Z,18.96
2023-03-17T14:49:52.230Z,19.12
2023-03-17T14:50:57.273Z,18.64
2023-03-17T14:52:01.901Z,18.92
2023-03-17T14:53:05.553Z,18.58
2023-03-17T14:54:16.210Z,18.82
2023-03-17T14:55:19.940Z,18.80
2023-03-17T14:56:24.352Z,18.65
2023-03-17T14:57:30.382Z,18.88
2023-03-17T14:58:37.835Z,18.89
2023-03-17T14:59:43.629Z,18.82
2023-03-17T15:00:47.369Z,18.84
2023-03-17T15:01:56.694Z,18.21
2023-03-17T15:03:03.451Z,18.69
2023-03-17T15:04:11.863Z,18.85
2023-03-17T15:05:27.937Z,18.91
2023-03-17T15:06:30.815Z,18.90
2023-03-17T15:07:39.910Z,18.97
2023-03-17T15:08:46.457Z,18.97
2023-03-17T15:09:59.840Z,18.72
2023-03-17T15:11:04.532Z,18.72
2023-03-17T15:12:17.032Z,19.01
2023-03-17T15:13:19.937Z,18.77
2023-03-17T15:14:31.302Z,18.77
2023-03-17T15:15:35.812Z,18.72
2023-03-17T15:16:40.863Z,18.89
2023-03-17T15:17:51.696Z,18.68
2023-03-17T15:19:07.545Z,18.48
2023-03-17T15:20:17.590Z,18.39
2023-03-17T15:21:23.983Z,18.32
2023-03-17T15:22:31.831Z,18.67
2023-03-17T15:23:40.965Z,18.81
2023-03-17T15:24:45.332Z,19.27
2023-03-17T15:25:51.285Z,19.68
2023-03-17T15:27:03.136Z,20.11
2023-03-17T15:28:11.969Z,20.61
2023-03-17T15:29:15.819Z,20.98
2023-03-17T15:30:20.158Z,20.90
2023-03-17T15:31:28.467Z,21.25
2023-03-17T15:32:32.551Z,21.00
2023-03-17T15:33:38.107Z,21.04
2023-03-17T15:34:42.495Z,21.06
2023-03-17T15:35:45.311Z,20.70
2023-03-17T15:36:50.220Z,20.51
2023-03-17T15:37:53.183Z,20.16
2023-03-17T15:38:57.086Z,19.75
2023-03-17T15:40:02.294Z,19.59
2023-03-17T15:41:04.829Z,19.23
2023-03-17T15:42:09.144Z,19.56
2023-03-17T15:43:15.770Z,19.30
2023-03-17T15:44:18.278Z,19.14
2023-03-17T15:45:21.718Z,18.97
2023-03-17T15:46:27.755Z,19.05
2023-03-17T15:47:33.566Z,18.35
2023-03-17T15:48:37.807Z,17.93
2023-03-17T15:49:41.553Z,18.32
2023-03-17T15:50:45.500Z,18.25
2023-03-17T15:51:49.065Z,18.41
2023-03-17T15:52:56.183Z,18.46
2023-03-17T15:53:58.727Z,18.36
2023-03-17T15:55:03.575Z,18.18
2023-03-17T15:56:10.052Z,18.48
2023-03-17T15:57:14.273Z,18.44
2023-03-17T15:58:16.636Z,18.43
2023-03-17T15:59:20.788Z,18.41
2023-03-17T16:00:25.316Z,18.49
2023-03-17T16:01:29.184Z,18.63
2023-03-17T16:02:33.661Z,18.44
2023-03-17T16:03:39.135Z,18.07
2023-03-17T16:04:41.723Z,18.36
2023-03-17T16:05:45.701Z,18.56
2023-03-17T16:06:49.794Z,18.57
2023-03-17T16:07:52.796Z,17.95
2023-03-17T16:08:56.972Z,18.45
2023-03-17T16:09:59.832Z,18.51
2023-03-17T16:11:03.754Z,18.58
2023-03-17T16:12:08.891Z,18.84
2023-03-17T16:13:12.900Z,19.49
2023-03-17T16:14:15.963Z,19.44
2023-03-17T16:15:23.350Z,19.25
2023-03-17T16:16:33.445Z,19.50
2023-03-17T16:17:36.165Z,19.48
2023-03-17T16:18:42.002Z,19.32
2023-03-17T16:19:45.180Z,19.08
2023-03-17T16:20:51.950Z,18.86
2023-03-17T16:21:55.612Z,18.83
2023-03-17T16:23:05.847Z,18.67
2023-03-17T16:24:17.267Z,18.78
2023-03-17T16:25:26.443Z,18.48
2023-03-17T16:26:30.281Z,18.66
2023-03-17T16:27:32.644Z,18.91
2023-03-17T16:28:36.396Z,18.86
2023-03-17T16:29:38.962Z,18.91
2023-03-17T16:30:43.087Z,19.05
2023-03-17T16:31:49.569Z,18.96
2023-03-17T16:32:53.270Z,18.89
2023-03-17T16:33:59.369Z,18.88
2023-03-17T16:35:02.193Z,18.67
2023-03-17T16:36:06.084Z,18.45
2023-03-17T16:37:13.383Z,18.28
2023-03-17T16:38:19.367Z,18.26
2023-03-17T16:39:24.007Z,18.29
2023-03-17T16:40:30.479Z,17.86
2023-03-17T16:41:35.473Z,18.10
2023-03-17T16:42:43.110Z,18.08
2023-03-17T16:43:51.145Z,18.14
2023-03-17T16:44:55.165Z,18.17
2023-03-17T16:46:00.321Z,17.98
2023-03-17T16:47:04.212Z,18.00
2023-03-17T16:48:07.075Z,18.08
2023-03-17T16:49:14.367Z,18.10
2023-03-17T16:50:18.672Z,18.08
2023-03-17T16:51:22.482Z,18.26
2023-03-17T16:52:25.932Z,17.89
2023-03-17T16:53:29.739Z,17.91
2023-03-17T16:54:33.666Z,18.04
2023-03-17T16:55:37.101Z,17.94
2023-03-17T16:56:42.506Z,17.61
2023-03-17T16:57:47.216Z,17.75
2023-03-17T16:58:52.337Z,17.66
2023-03-17T16:59:54.897Z,17.59
2023-03-17T17:01:01.405Z,17.46
2023-03-17T17:02:04.589Z,17.37
2023-03-17T17:03:08.114Z,17.40
2023-03-17T17:04:13.421Z,17.39
2023-03-17T17:05:18.109Z,16.96
2023-03-17T17:06:23.733Z,16.89
2023-03-17T17:07:26.256Z,17.04
2023-03-17T17:08:29.783Z,17.12
2023-03-17T17:09:32.330Z,17.28
2023-03-17T17:10:37.826Z,17.39
2023-03-17T17:11:40.289Z,17.49
2023-03-17T17:12:43.911Z,17.31
2023-03-17T17:13:49.975Z,17.19
2023-03-17T17:14:52.593Z,17.19
2023-03-17T17:15:56.602Z,17.07
2023-03-17T17:16:59.488Z,16.68
2023-03-17T17:18:06.369Z,16.56
2023-03-17T17:19:17.496Z,16.50
2023-03-17T17:20:21.791Z,16.67
2023-03-17T17:21:26.388Z,16.88
2023-03-17T17:22:28.829Z,16.62
2023-03-17T17:23:32.388Z,16.69
2023-03-17T17:24:35.863Z,16.83
2023-03-17T17:25:38.744Z,16.97
2023-03-17T17:26:42.460Z,17.12
2023-03-17T17:27:46.384Z,16.96
2023-03-17T17:28:50.329Z,16.96
2023-03-17T17:29:52.899Z,16.75
2023-03-17T17:30:58.722Z,16.87
2023-03-17T17:32:02.342Z,16.55
2023-03-17T17:33:05.557Z,16.53
2023-03-17T17:34:09.214Z,16.25
2023-03-17T17:35:13.531Z,16.40
2023-03-17T17:36:18.991Z,16.45
2023-03-17T17:37:21.823Z,16.40
2023-03-17T17:38:27.797Z,16.13
2023-03-17T17:39:30.782Z,15.92
2023-03-17T17:40:34.671Z,16.17
2023-03-17T17:41:38.646Z,16.11
2023-03-17T17:42:41.636Z,16.23
2023-03-17T17:43:46.441Z,16.11
2023-03-17T17:44:51.401Z,16.32
2023-03-17T17:45:56.033Z,16.42
2023-03-17T17:46:58.637Z,16.53
2023-03-17T17:48:02.757Z,16.22
2023-03-17T17:49:06.486Z,16.34
2023-03-17T17:50:18.634Z,16.51
2023-03-17T17:51:22.373Z,16.45
2023-03-17T17:52:24.875Z,16.33
2023-03-17T17:53:28.818Z,16.42
2023-03-17T17:54:31.324Z,16.56
2023-03-17T17:55:35.185Z,16.36
2023-03-17T17:56:40.369Z,16.15
2023-03-17T17:57:43.236Z,15.97
2023-03-17T17:58:47.390Z,15.97
2023-03-17T17:59:50.080Z,16.07
2023-03-17T18:00:55.460Z,16.17
2023-03-17T18:01:59.989Z,16.22
2023-03-17T18:03:03.834Z,16.24
2023-03-17T18:04:06.421Z,16.11
2023-03-17T18:05:10.745Z,15.97
2023-03-17T18:06:17.325Z,15.99
2023-03-17T18:07:19.718Z,15.88
2023-03-17T18:08:23.966Z,15.67
2023-03-17T18:09:26.381Z,15.71
2023-03-17T18:10:31.184Z,15.90
2023-03-17T18:11:34.382Z,15.50
2023-03-17T18:12:38.272Z,15.71
2023-03-17T18:13:41.158Z,15.87
2023-03-17T18:14:44.968Z,15.74
2023-03-17T18:15:47.541Z,15.81
2023-03-17T18:16:51.593Z,16.06
2023-03-17T18:17:54.924Z,15.65
2023-03-17T18:19:00.638Z,15.85
2023-03-17T18:20:03.574Z,15.64
2023-03-17T18:21:08.389Z,15.83
2023-03-17T18:22:12.210Z,15.95
2023-03-17T18:23:16.688Z,15.91
2023-03-17T18:24:20.751Z,15.86
2023-03-17T18:25:25.505Z,15.76
2023-03-17T18:26:29.898Z,15.89
2023-03-17T18:27:32.784Z,16.04
2023-03-17T18:28:36.206Z,15.98
2023-03-17T18:29:38.948Z,16.01
2023-03-17T18:30:42.449Z,16.05
2023-03-17T18:31:47.787Z,16.15
2023-03-17T18:32:54.237Z,15.97
2023-03-17T18:34:00.481Z,16.04
2023-03-17T18:35:09.580Z,15.90
2023-03-17T18:36:13.099Z,15.81
2023-03-17T18:37:18.858Z,15.90
2023-03-17T18:38:22.433Z,15.87
2023-03-17T18:39:26.254Z,15.93
2023-03-17T18:40:29.120Z,15.97
2023-03-17T18:41:35.020Z,15.95
2023-03-17T18:42:38.235Z,15.91
2023-03-17T18:43:44.947Z,15.93
2023-03-17T18:44:47.811Z,15.75
2023-03-17T18:45:51.389Z,15.66
2023-03-17T18:46:54.276Z,15.76
2023-03-17T18:47:57.674Z,15.61
2023-03-17T18:49:00.005Z,15.65
2023-03-17T18:50:03.685Z,15.58
2023-03-17T18:51:07.165Z,15.56
2023-03-17T18:52:11.336Z,15.50
2023-03-17T18:53:16.360Z,15.55
2023-03-17T18:54:18.964Z,15.59
2023-03-17T18:55:22.468Z,15.76
2023-03-17T18:56:29.151Z,15.78
2023-03-17T18:57:32.686Z,15.68
2023-03-17T18:58:37.472Z,15.52
2023-03-17T18:59:40.102Z,15.37
2023-03-17T19:00:43.691Z,15.31
2023-03-17T19:01:47.344Z,15.56
2023-03-17T19:02:49.684Z,15.64
2023-03-17T19:03:53.302Z,15.58
2023-03-17T19:04:56.183Z,15.55
2023-03-17T19:05:59.884Z,15.74
2023-03-17T19:07:03.361Z,15.68
2023-03-17T19:08:06.846Z,15.82
2023-03-17T19:09:12.456Z,15.79
2023-03-17T19:10:15.208Z,15.75
2023-03-17T19:11:21.800Z,15.67
2023-03-17T19:12:24.408Z,15.49
2023-03-17T19:13:28.202Z,15.52
2023-03-17T19:14:30.780Z,15.57
2023-03-17T19:15:34.526Z,15.74
2023-03-17T19:16:37.031Z,15.90
2023-03-17T19:17:41.144Z,15.76
2023-03-17T19:18:45.830Z,15.79
2023-03-17T19:19:50.433Z,15.92
2023-03-17T19:20:54.607Z,15.72
2023-03-17T19:21:57.052Z,15.47
2023-03-17T19:23:00.952Z,15.58
2023-03-17T19:24:05.054Z,15.20
2023-03-17T19:25:11.650Z,15.26
2023-03-17T19:26:14.263Z,15.33
2023-03-17T19:27:18.081Z,15.62
2023-03-17T19:28:21.023Z,15.45
2023-03-17T19:29:24.523Z,15.39
2023-03-17T19:30:27.281Z,15.60
2023-03-17T19:31:31.343Z,15.66
2023-03-17T19:32:33.959Z,15.60
2023-03-17T19:33:37.979Z,15.72
2023-03-17T19:34:40.697Z,15.71
2023-03-17T19:35:45.681Z,15.56
2023-03-17T19:36:48.401Z,15.72
2023-03-17T19:37:51.815Z,15.57
2023-03-17T19:38:54.308Z,15.48
2023-03-17T19:39:57.845Z,15.68
2023-03-17T19:41:01.670Z,15.70
2023-03-17T19:42:05.323Z,15.86
2023-03-17T19:43:07.786Z,15.83
2023-03-17T19:44:11.413Z,15.64
2023-03-17T19:45:13.767Z,15.66
2023-03-17T19:46:17.765Z,15.64
2023-03-17T19:47:20.296Z,15.63
2023-03-17T19:48:24.219Z,15.77
2023-03-17T19:49:27.757Z,15.68
2023-03-17T19:50:33.127Z,15.49
2023-03-17T19:51:36.281Z,15.64
2023-03-17T19:52:39.990Z,15.69
2023-03-17T19:53:42.531Z,15.71
2023-03-17T19:54:46.433Z,15.79
2023-03-17T19:55:49.045Z,15.63
2023-03-17T19:56:54.208Z,15.72
2023-03-17T19:57:56.817Z,15.77
2023-03-17T19:59:00.731Z,15.52
2023-03-17T20:00:03.277Z,15.56
2023-03-17T20:01:07.680Z,15.47
2023-03-17T20:02:15.127Z,15.63
2023-03-17T20:03:18.016Z,15.72
2023-03-17T20:04:23.345Z,15.39
2023-03-17T20:05:26.429Z,15.60
2023-03-17T20:06:32.131Z,15.28
2023-03-17T20:07:35.210Z,15.40
2023-03-17T20:08:38.836Z,15.21
2023-03-17T20:09:42.379Z,15.31
2023-03-17T20:10:46.308Z,15.26
2023-03-17T20:11:48.771Z,15.51
2023-03-17T20:12:53.717Z,15.62
2023-03-17T20:13:56.266Z,15.42
2023-03-17T20:15:00.362Z,15.44
2023-03-17T20:16:04.967Z,15.32
2023-03-17T20:17:07.674Z,15.44
2023-03-17T20:18:11.453Z,15.55
2023-03-17T20:19:14.135Z,15.50
2023-03-17T20:20:18.077Z,15.52
2023-03-17T20:21:20.675Z,15.65
2023-03-17T20:22:24.167Z,15.51
2023-03-17T20:23:27.583Z,15.61
2023-03-17T20:24:31.776Z,15.63
2023-03-17T20:25:35.977Z,15.63
2023-03-17T20:26:40.125Z,15.56
2023-03-17T20:27:43.637Z,15.62
2023-03-17T20:28:47.561Z,15.65
2023-03-17T20:29:51.627Z,15.64
2023-03-17T20:30:58.825Z,15.61
2023-03-17T20:32:02.498Z,15.67
2023-03-17T20:33:05.804Z,15.66
2023-03-17T20:34:10.302Z,15.61
2023-03-17T20:35:13.064Z,15.63
2023-03-17T20:36:16.573Z,15.60
2023-03-17T20:37:19.214Z,15.59
2023-03-17T20:38:23.836Z,15.67
2023-03-17T20:39:26.501Z,15.59
2023-03-17T20:40:30.846Z,15.40
2023-03-17T20:41:33.887Z,15.49
2023-03-17T20:42:37.933Z,15.54
2023-03-17T20:43:40.912Z,15.43
2023-03-17T20:44:45.989Z,15.42
2023-03-17T20:45:51.290Z,15.56
2023-03-17T20:46:55.182Z,15.72
2023-03-17T20:47:58.296Z,15.61
2023-03-17T20:49:02.295Z,15.42
2023-03-17T20:50:06.405Z,15.38
2023-03-17T20:51:16.527Z,15.35
2023-03-17T20:52:20.204Z,15.40
2023-03-17T20:53:23.559Z,15.52
2023-03-17T20:54:27.577Z,15.55
2023-03-17T20:55:31.018Z,15.34
2023-03-17T20:56:35.084Z,15.35
2023-03-17T20:57:38.204Z,15.30
2023-03-17T20:58:41.677Z,15.34
2023-03-17T20:59:46.661Z,15.34
2023-03-17T21:00:50.622Z,15.47
2023-03-17T21:01:54.248Z,15.60
2023-03-17T21:02:57.394Z,15.68
2023-03-17T21:04:01.628Z,15.64
2023-03-17T21:05:05.731Z,15.70
2023-03-17T21:06:09.936Z,15.60
2023-03-17T21:07:13.831Z,15.57
2023-03-17T21:08:16.399Z,15.63
2023-03-17T21:09:20.364Z,15.41
2023-03-17T21:10:22.989Z,15.75
2023-03-17T21:11:26.923Z,15.82
2023-03-17T21:12:29.399Z,15.88
2023-03-17T21:13:33.574Z,15.83
2023-03-17T21:14:36.779Z,15.63
2023-03-17T21:15:42.594Z,15.83
2023-03-17T21:16:47.396Z,15.83
2023-03-17T21:17:51.254Z,15.84
2023-03-17T21:18:54.807Z,15.84
2023-03-17T21:19:58.507Z,16.02
2023-03-17T21:21:01.133Z,15.91
2023-03-17T21:22:05.533Z,16.04
2023-03-17T21:23:08.130Z,16.11
2023-03-17T21:24:25.697Z,16.17
2023-03-17T21:25:29.192Z,15.93
2023-03-17T21:26:32.555Z,15.79
2023-03-17T21:27:38.980Z,15.76
2023-03-17T21:28:42.205Z,15.81
2023-03-17T21:29:45.783Z,15.94
2023-03-17T21:30:49.894Z,15.70
2023-03-17T21:31:53.434Z,15.71
2023-03-17T21:32:55.896Z,15.65
2023-03-17T21:33:59.844Z,15.61
2023-03-17T21:35:02.299Z,15.53
2023-03-17T21:36:06.656Z,15.47
2023-03-17T21:37:09.315Z,15.40
2023-03-17T21:38:12.883Z,15.43
2023-03-17T21:39:15.322Z,15.38
2023-03-17T21:40:19.557Z,15.29
2023-03-17T21:41:23.907Z,15.28
2023-03-17T21:42:28.085Z,15.39
2023-03-17T21:43:30.582Z,15.48
2023-03-17T21:44:34.131Z,15.68
2023-03-17T21:45:37.007Z,15.63
2023-03-17T21:46:42.107Z,15.61
2023-03-17T21:47:46.075Z,15.52
2023-03-17T21:48:49.795Z,15.42
2023-03-17T21:49:53.864Z,15.55
2023-03-17T21:50:56.294Z,15.52
2023-03-17T21:51:59.866Z,15.57
2023-03-17T21:53:02.382Z,15.76
2023-03-17T21:54:06.117Z,15.48
2023-03-17T21:55:09.957Z,15.61
2023-03-17T21:56:13.872Z,15.75
2023-03-17T21:57:18.116Z,15.75
2023-03-17T21:58:21.568Z,15.78
2023-03-17T21:59:25.105Z,15.96
2023-03-17T22:00:35.922Z,15.80
2023-03-17T22:01:52.199Z,15.85
2023-03-17T22:02:56.166Z,15.84
2023-03-17T22:03:59.843Z,15.79
2023-03-17T22:05:03.795Z,15.76
2023-03-17T22:06:07.301Z,15.77
2023-03-17T22:07:12.443Z,15.77
2023-03-17T22:08:15.426Z,15.76
2023-03-17T22:09:19.533Z,15.68
2023-03-17T22:10:21.860Z,15.60
2023-03-17T22:11:25.508Z,15.73
2023-03-17T22:12:29.200Z,15.72
2023-03-17T22:13:31.789Z,15.53
2023-03-17T22:14:35.911Z,15.62
2023-03-17T22:15:38.351Z,15.51
2023-03-17T22:16:42.027Z,15.63
2023-03-17T22:17:46.511Z,15.60
2023-03-17T22:18:50.121Z,15.57
2023-03-17T22:19:53.362Z,15.60
2023-03-17T22:20:57.651Z,15.59
2023-03-17T22:22:00.125Z,15.36